Time;durP1;ratioP1;P1;durP2;ratioP2;P2;SDS_P1;SDS_P2;PMS_P1;PMS_P2;Temp;Humidity;BMP_temperature;BMP_pressure;BME280_temperature;BME280_humidity;BME280_pressure;Samples;Min_cycle;Max_cycle;Signal;HPM_P1;HPM_P2
2022/10/19 00:00:17;;;;;;;;;9.00;9.00;;;;;17.95;81.00;101913.72;5018486;28;49469;-77
2022/10/19 00:02:43;;;;;;;;;9.00;8.50;;;;;18.13;81.33;101939.03;5029516;28;45330;-77
2022/10/19 00:05:08;;;;;;;;;13.75;11.75;;;;;18.10;81.12;101931.06;5020322;28;45544;-77
2022/10/19 00:07:33;;;;;;;;;11.25;9.75;;;;;18.07;81.06;101923.09;5020382;28;45315;-77
2022/10/19 00:09:59;;;;;;;;;9.25;9.25;;;;;18.01;81.16;101912.53;5014824;28;48128;-77
2022/10/19 00:12:24;;;;;;;;;10.75;10.75;;;;;18.00;80.77;101916.22;5017139;28;45413;-76
2022/10/19 00:14:50;;;;;;;;;8.50;8.25;;;;;18.07;81.33;101925.78;5035785;28;45420;-77
2022/10/19 00:17:15;;;;;;;;;11.25;10.00;;;;;18.04;81.18;101929.53;5020130;28;45595;-77
2022/10/19 00:19:40;;;;;;;;;7.25;7.25;;;;;18.00;80.69;101911.69;5019247;28;46192;-77
2022/10/19 00:22:05;;;;;;;;;10.00;9.25;;;;;18.02;81.17;101919.72;5009061;28;45503;-77
2022/10/19 00:24:31;;;;;;;;;9.25;9.00;;;;;17.97;81.19;101911.81;5019152;28;45387;-77
2022/10/19 00:26:56;;;;;;;;;11.25;10.75;;;;;18.02;80.86;101911.59;5019306;28;45570;-77
2022/10/19 00:29:22;;;;;;;;;5.75;5.75;;;;;17.96;81.23;101899.28;5010888;28;46443;-77
2022/10/19 00:31:49;;;;;;;;;13.00;10.00;;;;;17.94;80.77;101907.44;5027013;28;45707;-77
2022/10/19 00:34:15;;;;;;;;;9.00;9.00;;;;;17.95;81.00;101913.72;5019678;28;45779;-77
2022/10/19 00:36:40;;;;;;;;;9.25;8.50;;;;;17.91;81.15;101899.47;5017925;28;45349;-77
2022/10/19 00:39:09;;;;;;;;;11.50;8.75;;;;;17.98;80.85;101899.19;5019006;28;46766;-77
2022/10/19 00:41:35;;;;;;;;;10.00;10.00;;;;;17.89;81.09;101890.56;5018235;28;45586;-77
2022/10/19 00:44:11;;;;;;;;;9.75;9.75;;;;;17.96;81.00;101889.34;5019942;28;45399;-77
2022/10/19 00:46:44;;;;;;;;;8.50;7.75;;;;;17.89;81.20;101877.06;5019781;28;45362;-77
2022/10/19 00:49:14;;;;;;;;;8.50;8.50;;;;;17.93;80.93;101883.19;5019180;28;45482;-77
2022/10/19 00:51:44;;;;;;;;;11.25;11.00;;;;;17.92;80.95;101881.44;5005496;28;45519;-77
2022/10/19 00:54:11;;;;;;;;;7.50;7.50;;;;;17.92;81.24;101882.28;5019930;28;45410;-77
2022/10/19 00:56:39;;;;;;;;;8.75;8.00;;;;;17.88;80.73;101872.59;5007556;28;45369;-77
2022/10/19 00:59:06;;;;;;;;;6.75;6.75;;;;;17.89;81.39;101876.16;5018265;28;46116;-77
2022/10/19 01:01:32;;;;;;;;;6.75;6.75;;;;;17.89;81.32;101876.16;5025800;28;45479;-77
2022/10/19 01:03:59;;;;;;;;;8.50;8.50;;;;;17.88;81.19;101874.44;5019470;28;45336;-77
2022/10/19 01:06:25;;;;;;;;;8.50;8.50;;;;;17.81;81.19;101864.78;5017981;28;45569;-76
2022/10/19 01:08:50;;;;;;;;;9.00;9.00;;;;;17.84;80.90;101881.75;5031313;28;47852;-78
2022/10/19 01:11:19;;;;;;;;;10.50;10.50;;;;;17.83;80.88;101879.13;5019125;28;45534;-77
2022/10/19 01:13:52;;;;;;;;;8.75;8.75;;;;;17.78;81.39;101865.81;5033394;28;45471;-77
2022/10/19 01:16:43;;;;;;;;;10.75;10.25;;;;;17.78;81.20;101865.81;5019379;28;45590;-77
2022/10/19 01:19:42;;;;;;;;;6.75;6.75;;;;;17.71;81.33;101850.84;5014130;28;46319;-76
2022/10/19 01:22:54;;;;;;;;;9.75;9.25;;;;;17.77;80.81;101867.66;5019142;28;45523;-77
2022/10/19 01:26:01;;;;;;;;;8.75;8.00;;;;;17.73;81.10;101854.34;5014563;28;45379;-77
2022/10/19 01:28:50;;;;;;;;;8.50;8.50;;;;;17.74;81.02;101853.38;5018002;28;45568;-77
2022/10/19 01:31:31;;;;;;;;;7.50;7.25;;;;;17.79;81.15;101862.16;5016827;28;48277;-78
2022/10/19 01:34:34;;;;;;;;;8.50;8.50;;;;;17.76;80.94;101860.47;5007258;28;45344;-77
2022/10/19 01:36:59;;;;;;;;;9.75;9.00;;;;;17.75;80.97;101853.31;5018682;28;45356;-77
2022/10/19 01:39:48;;;;;;;;;10.00;8.00;;;;;17.75;80.99;101861.41;5020706;28;45630;-77
2022/10/19 01:42:32;;;;;;;;;7.50;7.50;;;;;17.75;81.51;101852.44;5012327;28;45716;-77
2022/10/19 01:45:23;;;;;;;;;6.50;6.50;;;;;17.73;80.95;101851.66;5017459;28;45615;-77
2022/10/19 01:48:01;;;;;;;;;10.25;7.25;;;;;17.72;80.73;101858.84;4992924;28;46717;-77
2022/10/19 01:50:40;;;;;;;;;5.75;5.75;;;;;17.71;81.25;101848.16;5020152;28;45607;-77
2022/10/19 01:53:09;;;;;;;;;11.25;9.75;;;;;17.63;81.49;101834.97;5024171;28;46480;-77
2022/10/19 01:55:38;;;;;;;;;5.50;5.50;;;;;17.71;80.95;101842.75;5015142;28;45768;-77
2022/10/19 01:58:06;;;;;;;;;9.25;9.25;;;;;17.68;80.82;101830.25;5017090;28;45432;-77
2022/10/19 02:00:36;;;;;;;;;7.50;7.50;;;;;17.71;80.96;101835.50;5021494;28;45479;-77
2022/10/19 02:03:03;;;;;;;;;11.25;9.50;;;;;17.72;81.35;101837.25;5017327;28;47061;-77
2022/10/19 02:05:32;;;;;;;;;5.50;5.00;;;;;17.73;80.89;101832.75;5013437;28;45317;-77
2022/10/19 02:08:02;;;;;;;;;8.00;7.25;;;;;17.73;80.77;101825.50;5004873;28;45426;-77
2022/10/19 02:10:31;;;;;;;;;8.25;7.00;;;;;17.70;81.21;101819.38;5018612;28;45624;-77
2022/10/19 02:12:58;;;;;;;;;7.50;7.50;;;;;17.71;80.99;101823.84;5017242;28;45362;-76
2022/10/19 02:15:27;;;;;;;;;6.75;6.50;;;;;17.49;80.66;101786.09;5007149;28;45265;-77
2022/10/19 02:17:56;;;;;;;;;8.75;7.75;;;;;17.63;80.89;101807.97;5018707;28;45415;-77
2022/10/19 02:20:22;;;;;;;;;8.25;7.25;;;;;17.65;81.39;101813.31;5017339;28;45511;-77
2022/10/19 02:22:48;;;;;;;;;5.50;5.50;;;;;17.63;81.27;101805.28;5018166;28;46317;-77
2022/10/19 02:25:14;;;;;;;;;5.50;4.50;;;;;17.68;81.19;101796.97;5013410;28;45483;-77
2022/10/19 02:27:41;;;;;;;;;8.50;8.00;;;;;17.68;81.25;101796.97;5018227;28;45518;-77
2022/10/19 02:30:08;;;;;;;;;7.00;7.00;;;;;17.66;80.86;101788.94;5018542;28;45340;-77
2022/10/19 02:32:34;;;;;;;;;9.00;7.25;;;;;17.68;81.07;101797.84;5018478;28;45406;-77
2022/10/19 02:34:59;;;;;;;;;6.50;6.50;;;;;17.58;80.70;101770.38;5017108;28;45530;-77
2022/10/19 02:37:25;;;;;;;;;6.50;6.50;;;;;17.67;81.11;101787.97;5018091;28;45437;-77
2022/10/19 02:39:50;;;;;;;;;8.75;6.75;;;;;17.57;81.03;101776.75;5017002;28;45526;-78
2022/10/19 02:42:38;;;;;;;;;8.25;6.25;;;;;17.66;81.10;101779.94;5017959;28;46242;-76
2022/10/19 02:45:04;;;;;;;;;3.00;3.00;;;;;17.65;81.15;101780.91;5004765;28;45395;-77
2022/10/19 02:47:46;;;;;;;;;9.00;7.75;;;;;17.59;80.79;101769.44;5018310;28;45573;-76
2022/10/19 02:50:11;;;;;;;;;10.00;9.00;;;;;17.63;80.86;101778.28;5006490;28;45360;-76
2022/10/19 02:52:38;;;;;;;;;8.75;8.75;;;;;17.57;80.90;101765.06;5017434;28;46513;-77
2022/10/19 02:55:04;;;;;;;;;7.75;7.25;;;;;17.52;80.75;101745.50;5017468;28;45265;-77
2022/10/19 02:57:31;;;;;;;;;7.00;7.00;;;;;17.58;81.03;101758.72;5010003;28;45404;-77
2022/10/19 02:59:57;;;;;;;;;8.75;7.50;;;;;17.55;81.28;101754.31;5018114;28;45356;-77
2022/10/19 03:02:22;;;;;;;;;7.00;7.00;;;;;17.52;81.12;101754.44;5018024;28;46171;-77
2022/10/19 03:04:47;;;;;;;;;5.75;5.75;;;;;17.54;81.19;101749.00;5012847;28;45467;-77
2022/10/19 03:07:15;;;;;;;;;10.00;10.00;;;;;17.55;81.33;101756.16;5017697;28;45479;-77
2022/10/19 03:09:41;;;;;;;;;8.00;7.00;;;;;17.57;81.15;101752.44;5013391;28;45571;-77
2022/10/19 03:12:06;;;;;;;;;8.50;8.00;;;;;17.51;81.25;101736.53;4997003;28;46993;-77
2022/10/19 03:14:32;;;;;;;;;10.00;9.00;;;;;17.59;81.14;101745.16;5013965;28;45513;-77
2022/10/19 03:16:57;;;;;;;;;9.50;8.00;;;;;17.55;81.10;101732.72;5012037;28;45794;-78
2022/10/19 03:19:23;;;;;;;;;7.00;7.00;;;;;17.56;80.78;101736.31;5015943;28;45593;-77
2022/10/19 03:21:48;;;;;;;;;8.00;8.00;;;;;17.54;81.01;101732.78;5020205;28;45296;-77
2022/10/19 03:24:13;;;;;;;;;7.00;6.00;;;;;17.47;80.87;101720.53;5019092;28;45665;-77
2022/10/19 03:26:39;;;;;;;;;8.50;8.50;;;;;17.46;81.04;101722.38;5019086;28;45366;-77
2022/10/19 03:29:04;;;;;;;;;8.25;8.00;;;;;17.47;80.82;101723.22;5019708;28;45571;-77
2022/10/19 03:31:29;;;;;;;;;11.50;9.25;;;;;17.53;80.96;101731.06;5019281;28;55873;-77
2022/10/19 03:33:55;;;;;;;;;9.75;9.75;;;;;17.42;81.38;101712.63;5020959;28;45351;-77
2022/10/19 03:36:26;;;;;;;;;8.75;8.50;;;;;17.48;80.98;101725.88;5020107;28;45366;-77
2022/10/19 03:38:57;;;;;;;;;9.75;8.00;;;;;17.44;81.23;101723.38;5013509;28;45614;-77
2022/10/19 03:41:25;;;;;;;;;7.00;7.00;;;;;17.48;81.12;101730.41;5020112;28;45503;-76
2022/10/19 03:43:51;;;;;;;;;8.00;8.00;;;;;17.48;80.97;101725.88;5019489;28;45598;-76
2022/10/19 03:46:17;;;;;;;;;7.75;7.00;;;;;17.48;81.00;101727.69;5020108;28;45582;-77
2022/10/19 03:48:42;;;;;;;;;6.75;6.75;;;;;17.39;81.37;101704.66;5020940;28;45581;-77
2022/10/19 03:51:16;;;;;;;;;7.75;7.75;;;;;17.42;81.20;101709.94;5019763;28;46087;-77
2022/10/19 03:53:42;;;;;;;;;9.25;7.75;;;;;17.43;80.77;101718.94;5020779;28;45561;-77
2022/10/19 03:56:12;;;;;;;;;6.75;6.75;;;;;17.37;81.00;101712.88;5033473;28;45411;-76
2022/10/19 03:58:39;;;;;;;;;9.00;7.50;;;;;17.37;80.88;101712.88;5020169;28;45621;-77
2022/10/19 04:01:13;;;;;;;;;10.50;10.00;;;;;17.35;80.72;101714.75;5015699;28;46227;-77
2022/10/19 04:03:39;;;;;;;;;7.75;7.75;;;;;17.33;80.80;101722.03;5018997;28;45453;-77
2022/10/19 04:06:06;;;;;;;;;8.25;7.50;;;;;17.32;81.04;101720.28;5020053;28;45784;-77
2022/10/19 04:08:32;;;;;;;;;7.00;7.00;;;;;17.29;81.37;101716.84;5012925;28;45392;-77
2022/10/19 04:10:59;;;;;;;;;9.50;8.00;;;;;17.22;81.27;101703.66;5020200;28;46589;-77
2022/10/19 04:13:25;;;;;;;;;10.25;8.75;;;;;17.31;80.99;101723.06;5030390;28;45532;-77
2022/10/19 04:15:50;;;;;;;;;9.25;8.25;;;;;17.31;81.36;101721.22;5023019;28;45849;-77
2022/10/19 04:18:15;;;;;;;;;9.00;9.00;;;;;17.25;81.32;101705.31;5015456;28;45317;-77
2022/10/19 04:20:42;;;;;;;;;9.25;9.00;;;;;17.29;81.47;101711.44;5019098;28;45253;-77
2022/10/19 04:23:08;;;;;;;;;4.75;3.25;;;;;17.31;81.27;101718.53;5020236;28;45513;-77
2022/10/19 04:25:33;;;;;;;;;11.00;11.00;;;;;17.30;81.11;101708.69;5019020;28;45898;-76
2022/10/19 04:27:58;;;;;;;;;10.50;10.50;;;;;17.32;80.86;101708.59;5017934;28;45312;-76
2022/10/19 04:30:24;;;;;;;;;6.50;5.00;;;;;17.34;81.52;101718.41;5019485;28;45347;-77
2022/10/19 04:32:49;;;;;;;;;9.00;8.00;;;;;17.25;81.10;101696.34;5020081;28;45408;-77
2022/10/19 04:35:14;;;;;;;;;9.25;9.25;;;;;17.26;81.12;101693.59;5019867;28;45727;-77
2022/10/19 04:37:40;;;;;;;;;9.75;9.50;;;;;17.26;80.91;101708.88;5017517;28;45814;-77
2022/10/19 04:40:06;;;;;;;;;9.50;9.50;;;;;17.23;81.38;101699.97;5018474;28;45443;-77
2022/10/19 04:42:31;;;;;;;;;9.75;9.00;;;;;17.26;81.48;101704.38;5019753;28;45537;-77
2022/10/19 04:44:56;;;;;;;;;10.75;9.75;;;;;17.25;81.35;101705.31;5018709;28;45416;-76
2022/10/19 04:47:22;;;;;;;;;9.75;8.75;;;;;17.20;80.98;101697.41;5019426;28;45332;-77
2022/10/19 04:49:47;;;;;;;;;9.00;9.00;;;;;17.15;80.94;101682.41;5019683;28;46018;-77
2022/10/19 04:52:12;;;;;;;;;10.25;10.25;;;;;17.26;81.27;101696.28;5026708;28;45322;-77
2022/10/19 04:54:38;;;;;;;;;9.00;9.00;;;;;17.28;81.31;101696.22;5011929;28;45502;-77
2022/10/19 04:57:03;;;;;;;;;8.25;8.25;;;;;17.24;81.48;101684.69;5020292;28;45597;-77
2022/10/19 04:59:28;;;;;;;;;7.75;7.75;;;;;17.23;81.32;101674.84;5015912;28;50447;-77
2022/10/19 05:01:54;;;;;;;;;8.75;8.75;;;;;17.27;81.48;101675.56;5019808;28;45410;-77
2022/10/19 05:04:19;;;;;;;;;8.00;8.00;;;;;17.23;81.21;101674.84;5019302;28;45500;-77
2022/10/19 05:06:44;;;;;;;;;12.00;10.50;;;;;17.19;81.16;101667.81;5033677;28;47341;-77
2022/10/19 05:09:09;;;;;;;;;11.75;9.00;;;;;17.11;81.14;101654.69;5013113;28;45307;-77
2022/10/19 05:11:35;;;;;;;;;11.00;11.00;;;;;17.12;81.35;101656.41;5022759;28;45886;-77
2022/10/19 05:14:00;;;;;;;;;10.00;9.50;;;;;17.07;81.62;101654.88;5024677;28;45548;-77
2022/10/19 05:16:25;;;;;;;;;8.25;8.25;;;;;17.05;81.54;101652.25;5015232;28;45619;-76
2022/10/19 05:18:55;;;;;;;;;10.25;10.00;;;;;17.09;81.73;101663.78;5015783;28;45436;-77
2022/10/19 05:21:21;;;;;;;;;11.50;11.00;;;;;17.09;81.59;101661.97;5005135;28;45284;-77
2022/10/19 05:23:51;;;;;;;;;13.00;11.00;;;;;17.04;81.78;101654.09;5016690;28;45472;-77
2022/10/19 05:26:18;;;;;;;;;11.25;10.75;;;;;17.09;81.69;101661.97;5017966;28;45475;-77
2022/10/19 05:28:55;;;;;;;;;13.00;11.75;;;;;17.09;81.42;101663.78;5017324;28;46165;-77
2022/10/19 05:31:22;;;;;;;;;11.25;9.00;;;;;17.07;81.76;101660.28;5020960;28;45379;-77
2022/10/19 05:33:47;;;;;;;;;10.25;10.25;;;;;17.06;81.51;101648.63;5017553;28;45367;-77
2022/10/19 05:36:14;;;;;;;;;11.00;11.00;;;;;17.06;81.87;101643.22;5017796;28;45314;-77
2022/10/19 05:38:40;;;;;;;;;10.00;9.25;;;;;16.99;81.94;101634.53;5028382;28;47164;-84
2022/10/19 05:41:06;;;;;;;;;11.00;11.00;;;;;16.96;81.58;101618.50;5017085;28;45525;-80
2022/10/19 05:43:31;;;;;;;;;11.00;8.50;;;;;17.02;81.73;101628.13;5016620;28;45283;-79
2022/10/19 05:45:56;;;;;;;;;15.25;14.50;;;;;17.04;81.61;101624.41;5019596;28;45450;-75
2022/10/19 05:48:22;;;;;;;;;9.50;9.50;;;;;17.00;81.53;101612.00;5019152;28;45538;-76
2022/10/19 05:50:54;;;;;;;;;12.75;11.75;;;;;17.06;81.46;101621.66;5030239;28;45494;-83
2022/10/19 05:53:19;;;;;;;;;10.50;10.50;;;;;17.02;81.70;101620.91;5017625;28;45305;-82
2022/10/19 05:55:45;;;;;;;;;8.75;8.75;;;;;17.01;81.80;101618.28;5018186;28;45597;-85
2022/10/19 05:58:10;;;;;;;;;10.00;10.00;;;;;17.06;81.29;101634.25;5020356;28;45526;-83
2022/10/19 06:00:35;;;;;;;;;13.75;13.75;;;;;16.95;81.44;101622.13;5018089;28;45525;-84
2022/10/19 06:03:01;;;;;;;;;12.75;12.25;;;;;17.01;81.66;101626.38;5032839;28;45422;-84
2022/10/19 06:05:26;;;;;;;;;9.00;8.75;;;;;16.98;81.73;101622.00;5016354;28;45332;-82
2022/10/19 06:07:51;;;;;;;;;12.00;12.00;;;;;17.07;81.40;101631.47;5019462;28;48040;-81
2022/10/19 06:10:18;;;;;;;;;10.50;10.50;;;;;17.06;81.32;101627.03;5018575;28;45291;-82
2022/10/19 06:12:43;;;;;;;;;13.75;12.75;;;;;17.06;81.53;101631.53;5016702;28;45430;-82
2022/10/19 06:15:09;;;;;;;;;12.25;10.00;;;;;17.08;81.43;101632.38;5018450;28;45357;-83
2022/10/19 06:17:34;;;;;;;;;12.00;12.00;;;;;16.95;81.41;101610.47;5018003;28;47389;-81
2022/10/19 06:19:59;;;;;;;;;14.50;13.75;;;;;16.97;81.61;101613.97;5016591;28;45407;-83
2022/10/19 06:22:25;;;;;;;;;12.00;11.00;;;;;17.07;81.35;101628.78;5016388;28;45440;-82
2022/10/19 06:24:50;;;;;;;;;11.75;11.00;;;;;17.03;81.46;101624.47;5025727;28;46205;-83
2022/10/19 06:27:15;;;;;;;;;14.50;12.25;;;;;17.09;81.50;101632.31;5016587;28;50146;-82
2022/10/19 06:29:40;;;;;;;;;11.50;11.50;;;;;17.03;81.19;101629.88;5017711;28;45363;-84
2022/10/19 06:32:06;;;;;;;;;14.00;12.25;;;;;17.06;80.99;101636.94;5020964;28;45366;-88
2022/10/19 06:34:31;;;;;;;;;12.00;11.00;;;;;17.03;81.34;101629.88;5015775;28;45668;-86
2022/10/19 06:36:56;;;;;;;;;15.25;13.00;;;;;17.09;81.46;101642.19;5016006;28;46008;-85
2022/10/19 06:39:22;;;;;;;;;15.25;13.25;;;;;16.94;80.93;101625.78;5016825;28;45368;-86
2022/10/19 06:41:47;;;;;;;;;12.00;12.00;;;;;17.04;81.53;101635.19;5016136;28;45497;-88
2022/10/19 06:44:13;;;;;;;;;14.25;12.25;;;;;16.89;81.28;101613.44;5014000;28;45612;-88
2022/10/19 06:46:38;;;;;;;;;11.00;9.75;;;;;16.90;81.31;101618.75;5016024;28;45574;-88
2022/10/19 06:49:03;;;;;;;;;13.75;13.75;;;;;16.97;81.41;101631.03;5017989;28;45561;-88
2022/10/19 06:51:31;;;;;;;;;12.25;12.25;;;;;16.95;81.49;101630.22;5016962;28;45399;-89
2022/10/19 06:53:56;;;;;;;;;16.00;16.00;;;;;16.94;81.54;101632.97;5018890;28;45598;-87
2022/10/19 06:56:23;;;;;;;;;12.00;12.00;;;;;16.97;81.88;101633.75;5018743;28;47789;-87
2022/10/19 06:58:48;;;;;;;;;16.75;13.75;;;;;16.99;81.47;101639.03;5031354;28;45428;-87
2022/10/19 07:01:14;;;;;;;;;15.50;12.00;;;;;16.97;81.14;101638.22;4999767;28;45608;-89
2022/10/19 07:03:41;;;;;;;;;13.50;12.50;;;;;16.92;81.50;101624.94;5020357;28;46201;-86
2022/10/19 07:06:08;;;;;;;;;14.50;12.75;;;;;16.90;81.31;101618.75;5026236;28;45870;-87
2022/10/19 07:08:36;;;;;;;;;13.75;12.50;;;;;16.93;81.49;101618.63;5015762;28;45364;-89
2022/10/19 07:11:05;;;;;;;;;8.00;7.25;;;;;16.94;81.33;101627.56;5017953;28;45590;-88
2022/10/19 07:13:31;;;;;;;;;13.75;11.75;;;;;16.82;81.42;101602.00;5019439;28;45470;-88
2022/10/19 07:16:04;;;;;;;;;11.50;11.50;;;;;16.92;81.60;101614.16;5019129;28;45440;-84
2022/10/19 07:18:30;;;;;;;;;11.00;11.00;;;;;16.92;81.81;101614.16;5018274;28;45591;-91
2022/10/19 07:21:01;;;;;;;;;13.00;10.50;;;;;16.98;81.56;101611.19;5018569;28;45479;-75
2022/10/19 07:23:28;;;;;;;;;14.25;13.25;;;;;16.91;81.28;101601.66;5034830;28;45569;-77
2022/10/19 07:25:59;;;;;;;;;14.50;13.50;;;;;16.95;81.58;101603.25;5018237;28;47353;-77
2022/10/19 07:28:25;;;;;;;;;16.00;14.75;;;;;16.95;81.18;101607.78;5019320;28;45587;-77
2022/10/19 07:30:51;;;;;;;;;13.75;12.50;;;;;16.90;81.74;101599.88;5039360;28;45539;-77
2022/10/19 07:33:16;;;;;;;;;12.25;11.25;;;;;16.96;81.99;101612.22;5023666;28;45256;-76
2022/10/19 07:35:41;;;;;;;;;12.75;12.25;;;;;16.98;81.95;101608.50;5015603;28;45538;-76
2022/10/19 07:38:07;;;;;;;;;12.25;11.00;;;;;16.91;82.03;101598.94;5018620;28;45397;-77
2022/10/19 07:40:33;;;;;;;;;13.00;13.00;;;;;16.96;82.19;101606.84;5017888;28;45407;-76
2022/10/19 07:42:58;;;;;;;;;17.00;16.50;;;;;17.05;81.65;101619.88;5016670;28;45530;-76
2022/10/19 07:45:23;;;;;;;;;14.50;13.75;;;;;17.07;81.75;101612.59;5006705;28;47126;-75
2022/10/19 07:47:49;;;;;;;;;11.50;11.00;;;;;17.08;81.58;101613.50;5014187;28;45561;-75
2022/10/19 07:50:14;;;;;;;;;14.75;13.25;;;;;17.06;82.04;101604.56;5011420;28;45710;-75
2022/10/19 07:52:39;;;;;;;;;13.75;13.25;;;;;17.17;82.13;101607.66;5033679;28;45743;-75
2022/10/19 07:55:05;;;;;;;;;16.25;16.25;;;;;17.17;81.61;101608.56;5013958;28;47401;-75
2022/10/19 07:57:31;;;;;;;;;16.00;16.00;;;;;17.03;81.54;101578.63;5020185;28;45576;-74
2022/10/19 07:59:56;;;;;;;;;18.50;14.00;;;;;17.22;82.08;101613.72;5012842;28;45857;-75
2022/10/19 08:02:21;;;;;;;;;15.25;13.75;;;;;17.20;81.73;101605.69;5016272;28;45355;-75
2022/10/19 08:04:47;;;;;;;;;19.00;14.75;;;;;17.23;81.77;101608.25;5017239;28;45447;-75
2022/10/19 08:07:12;;;;;;;;;14.25;13.25;;;;;17.24;81.87;101592.94;5018147;28;45508;-76
2022/10/19 08:09:37;;;;;;;;;16.00;14.00;;;;;17.29;81.75;101593.63;5019115;28;45671;-75
2022/10/19 08:12:04;;;;;;;;;15.50;15.00;;;;;17.35;81.88;101603.22;5018441;28;45438;-74
2022/10/19 08:14:56;;;;;;;;;13.25;12.75;;;;;17.33;81.60;101597.03;5016973;28;46209;-70
2022/10/19 08:17:21;;;;;;;;;14.00;14.00;;;;;17.27;82.20;101584.69;5015880;28;45490;-68
2022/10/19 08:19:46;;;;;;;;;17.75;16.75;;;;;17.32;81.45;101590.75;5018732;28;45829;-68
2022/10/19 08:22:12;;;;;;;;;16.00;14.00;;;;;17.32;81.56;101585.34;5018266;28;45489;-69
2022/10/19 08:24:37;;;;;;;;;13.25;12.75;;;;;17.41;81.37;101603.81;5016752;28;45508;-70
2022/10/19 08:27:03;;;;;;;;;15.75;14.75;;;;;17.49;81.41;101598.06;5012036;28;45478;-69
2022/10/19 08:29:28;;;;;;;;;15.25;15.00;;;;;17.54;81.23;101589.72;5019604;28;45657;-69
2022/10/19 08:31:53;;;;;;;;;13.50;13.50;;;;;17.47;81.41;101577.47;5019380;28;45691;-70
2022/10/19 08:34:19;;;;;;;;;14.50;12.75;;;;;17.56;81.00;101583.31;5016005;28;48232;-68
2022/10/19 08:36:45;;;;;;;;;15.50;15.50;;;;;17.60;81.51;101590.31;5017906;28;45624;-68
2022/10/19 08:39:15;;;;;;;;;14.00;13.75;;;;;17.65;81.34;101592.78;5017271;28;45458;-69
2022/10/19 08:42:15;;;;;;;;;15.00;12.50;;;;;17.68;81.39;101589.94;5017650;28;45518;-68
2022/10/19 08:44:49;;;;;;;;;18.00;13.25;;;;;17.72;81.25;101585.25;5018321;28;46170;-69
2022/10/19 08:47:42;;;;;;;;;16.75;12.25;;;;;17.75;81.06;101577.88;5015814;28;45403;-69
2022/10/19 08:50:20;;;;;;;;;16.25;14.25;;;;;17.71;81.38;101564.63;5015879;28;45475;-68
2022/10/19 08:52:56;;;;;;;;;14.75;14.50;;;;;17.76;81.26;101576.06;5029725;28;45699;-71
2022/10/19 08:55:33;;;;;;;;;13.50;12.25;;;;;17.66;80.68;101550.44;5015783;28;45630;-71
2022/10/19 08:58:20;;;;;;;;;12.50;11.50;;;;;17.72;81.12;101560.97;5011406;28;45418;-67
2022/10/19 09:00:51;;;;;;;;;14.00;13.00;;;;;17.90;81.05;101589.78;5023094;28;45844;-67
2022/10/19 09:03:30;;;;;;;;;12.75;12.25;;;;;17.76;80.65;101559.88;5007661;28;45452;-67
2022/10/19 09:06:21;;;;;;;;;12.75;12.75;;;;;17.97;80.88;101587.66;5010524;28;45395;-67
2022/10/19 09:08:50;;;;;;;;;14.50;14.25;;;;;17.93;80.56;101573.44;5001724;28;45352;-68
2022/10/19 09:11:22;;;;;;;;;14.25;14.00;;;;;17.92;80.14;101568.97;5011983;28;45479;-68
2022/10/19 09:13:49;;;;;;;;;16.25;14.25;;;;;18.02;80.78;101584.72;5006003;28;45554;-68
2022/10/19 09:16:17;;;;;;;;;10.75;10.25;;;;;17.82;80.63;101535.25;5006594;28;47073;-67
2022/10/19 09:18:45;;;;;;;;;12.50;12.00;;;;;18.01;80.21;101559.56;5004861;28;45678;-68
2022/10/19 09:21:10;;;;;;;;;11.75;11.75;;;;;18.12;80.67;101567.09;5010670;28;46084;-68
2022/10/19 09:23:54;;;;;;;;;12.50;12.50;;;;;18.14;80.33;101562.47;5008607;28;45641;-68
2022/10/19 09:26:25;;;;;;;;;13.00;11.50;;;;;18.06;80.40;101549.38;5010986;28;45440;-67
2022/10/19 09:29:09;;;;;;;;;12.00;11.50;;;;;18.22;80.48;101559.41;5011496;28;45579;-68
2022/10/19 09:31:42;;;;;;;;;12.00;11.00;;;;;18.23;80.62;101547.66;5014692;28;46175;-68
2022/10/19 09:34:31;;;;;;;;;12.25;12.00;;;;;18.32;80.33;101557.97;5013843;28;45858;-68
2022/10/19 09:36:58;;;;;;;;;13.00;12.00;;;;;18.29;80.35;101542.78;5010716;28;48137;-68
2022/10/19 09:39:25;;;;;;;;;14.00;14.00;;;;;18.34;80.08;101547.94;5013727;28;45954;-68
2022/10/19 09:41:55;;;;;;;;;13.25;12.50;;;;;18.43;80.19;101558.28;5012124;28;45519;-68
2022/10/19 09:44:23;;;;;;;;;15.25;13.00;;;;;18.48;79.83;101560.75;5008777;28;45467;-68
2022/10/19 09:47:02;;;;;;;;;13.50;11.75;;;;;18.46;79.89;101550.00;5011046;28;45445;-68
2022/10/19 09:49:37;;;;;;;;;13.50;10.75;;;;;18.47;80.22;101538.22;5013006;28;45424;-68
2022/10/19 09:52:03;;;;;;;;;16.25;13.25;;;;;18.55;79.93;101543.25;5012166;28;46903;-68
2022/10/19 09:54:37;;;;;;;;;10.50;10.50;;;;;18.62;79.76;101541.09;5011753;28;47235;-69
2022/10/19 09:57:03;;;;;;;;;10.00;8.25;;;;;18.53;79.84;101518.13;5010545;28;45626;-68
2022/10/19 09:59:34;;;;;;;;;13.50;13.50;;;;;18.53;79.25;101526.22;5015081;28;45478;-68
2022/10/19 10:02:11;;;;;;;;;11.50;11.25;;;;;18.70;79.27;101536.13;5015800;28;45419;-68
2022/10/19 10:04:37;;;;;;;;;14.00;13.50;;;;;18.70;79.46;101528.88;5015772;28;45709;-68
2022/10/19 10:07:03;;;;;;;;;17.50;13.00;;;;;18.68;79.54;101514.59;5007613;28;45508;-68
2022/10/19 10:09:29;;;;;;;;;15.50;12.75;;;;;18.81;79.23;101524.72;5005953;28;45483;-69
2022/10/19 10:11:58;;;;;;;;;10.00;10.00;;;;;18.83;79.44;101518.31;5013941;28;45664;-68
2022/10/19 10:14:24;;;;;;;;;14.00;12.50;;;;;18.96;79.58;101520.34;5013304;28;45493;-68
2022/10/19 10:16:55;;;;;;;;;14.25;13.75;;;;;18.86;79.33;101488.41;5017915;28;45645;-68
2022/10/19 10:19:25;;;;;;;;;18.50;15.50;;;;;18.93;78.98;101485.34;5028583;28;45791;-68
2022/10/19 10:21:56;;;;;;;;;11.75;10.25;;;;;19.07;78.64;101502.53;5003747;28;45483;-68
2022/10/19 10:24:25;;;;;;;;;12.75;12.00;;;;;19.12;78.59;101498.72;5011123;28;45731;-68
2022/10/19 10:27:11;;;;;;;;;10.50;10.50;;;;;19.09;78.62;101491.63;5012918;28;47883;-68
2022/10/19 10:29:40;;;;;;;;;8.75;8.75;;;;;19.08;77.82;101481.78;5018455;28;45494;-68
2022/10/19 10:32:27;;;;;;;;;12.50;12.50;;;;;19.27;77.95;101500.56;5012458;28;45521;-68
2022/10/19 10:35:01;;;;;;;;;11.50;10.25;;;;;19.23;78.12;101483.63;5012455;28;45500;-68
2022/10/19 10:37:38;;;;;;;;;11.25;9.75;;;;;19.27;77.70;101480.75;5007208;28;47555;-68
2022/10/19 10:40:06;;;;;;;;;10.75;10.50;;;;;19.37;78.08;101488.22;5015423;28;45339;-68
2022/10/19 10:42:53;;;;;;;;;13.75;13.75;;;;;19.33;77.14;101483.06;5019992;28;45387;-68
2022/10/19 10:45:37;;;;;;;;;12.25;9.50;;;;;19.38;77.26;101479.16;5017944;28;45842;-68
2022/10/19 10:48:20;;;;;;;;;11.00;11.00;;;;;19.30;77.52;101457.06;5013591;28;46396;-67
2022/10/19 10:50:46;;;;;;;;;8.50;7.00;;;;;19.44;77.17;101467.09;5017380;28;45602;-68
2022/10/19 10:53:35;;;;;;;;;12.50;9.50;;;;;19.53;77.16;101481.94;5019933;28;45372;-69
2022/10/19 10:56:03;;;;;;;;;11.00;11.00;;;;;19.59;76.88;101477.03;5019037;28;45425;-69
2022/10/19 10:58:38;;;;;;;;;8.25;8.25;;;;;19.53;76.49;101446.72;5019571;28;45490;-68
2022/10/19 11:01:12;;;;;;;;;8.25;8.25;;;;;19.65;76.48;101462.28;5019761;28;45483;-68
2022/10/19 11:03:44;;;;;;;;;10.75;10.50;;;;;19.68;77.17;101461.19;5012063;28;45743;-68
2022/10/19 11:06:11;;;;;;;;;11.50;9.50;;;;;19.68;76.38;101455.78;5018736;28;45733;-68
2022/10/19 11:08:51;;;;;;;;;9.00;9.00;;;;;19.60;76.35;101430.03;5019581;28;45501;-68
2022/10/19 11:11:21;;;;;;;;;9.00;9.00;;;;;19.78;75.93;101451.63;5018335;28;45348;-68
2022/10/19 11:13:53;;;;;;;;;11.50;11.50;;;;;19.77;75.94;101439.03;5019533;28;45579;-68
2022/10/19 11:16:41;;;;;;;;;12.25;11.00;;;;;19.84;75.67;101445.81;5016837;28;45972;-68
2022/10/19 11:19:17;;;;;;;;;12.00;9.50;;;;;19.85;75.94;101444.84;5017862;28;45615;-68
2022/10/19 11:21:55;;;;;;;;;5.50;5.50;;;;;19.76;75.29;101415.59;5017949;28;45759;-68
2022/10/19 11:24:46;;;;;;;;;11.00;10.50;;;;;19.86;75.34;101430.31;5009587;28;45420;-68
2022/10/19 11:27:23;;;;;;;;;11.25;9.25;;;;;19.73;75.64;101389.56;5018205;28;45585;-69